West Hamlin, West Virginia
Current Conditions -  °F | °C
As of 7:51 PM on Wednesday 22 Oct 2014 (Local Time) from KHTS Reporting Station
Overcast Overcast  
Wind Chill: 50°   Ceiling: 2400
Heat Index: 50°   Visibility: 10mi
Dew Point: 43°   Wind: 8mph
Humidity: 77%   Direction: 350°N
Pressure: 30.23"   Gusts: NA
Location:  38.29°N, 82.2°W
Report Text: KHTS 222351Z 35007KT 10SM OVC024 10/06 A3023 RMK AO2 SLP240 T01000061 10106 20100 53005
Loading
Personal Weather Stations






























Interactive Weather Map
Tropical Storm Tracking
New forecast layout! Learn more

10-Day Weather Forecast

Advertisements
Track Severe Weather on mobile